createdAt,value
2022-11-04T00:02:45.208Z,4.80
2022-11-04T00:08:05.467Z,4.85
2022-11-04T00:13:08.231Z,5.43
2022-11-04T00:18:12.178Z,5.60
2022-11-04T00:23:32.433Z,5.32
2022-11-04T00:28:44.366Z,5.60
2022-11-04T00:33:48.885Z,5.90
2022-11-04T00:38:51.364Z,7.05
2022-11-04T00:43:54.322Z,9.27
2022-11-04T00:48:58.376Z,10.52
2022-11-04T00:54:00.958Z,9.93
2022-11-04T00:59:03.384Z,10.33
2022-11-04T01:04:07.826Z,11.50
2022-11-04T01:09:12.106Z,12.50
2022-11-04T01:14:15.023Z,14.23
2022-11-04T01:19:18.854Z,14.10
2022-11-04T01:24:21.264Z,13.52
2022-11-04T01:29:23.691Z,15.07
2022-11-04T01:34:27.814Z,17.85
2022-11-04T01:39:31.321Z,19.27
2022-11-04T01:49:43.318Z,12.85
2022-11-04T01:54:47.431Z,13.88
2022-11-04T01:59:49.932Z,14.00
2022-11-04T02:04:53.740Z,15.20
2022-11-04T02:09:56.543Z,14.02
2022-11-04T02:14:59.328Z,12.03
2022-11-04T02:20:25.426Z,11.53
2022-11-04T02:25:40.561Z,9.63
2022-11-04T02:30:47.890Z,8.32
2022-11-04T02:35:56.591Z,6.32
2022-11-04T02:41:02.115Z,6.22
2022-11-04T02:46:07.340Z,6.88
2022-11-04T02:51:12.030Z,7.22
2022-11-04T02:56:16.174Z,7.93
2022-11-04T03:01:21.792Z,11.70
2022-11-04T03:06:25.950Z,13.93
2022-11-04T03:11:28.701Z,16.05
2022-11-04T03:16:36.771Z,17.17
2022-11-04T03:21:42.077Z,19.85
2022-11-04T03:26:48.130Z,21.98
2022-11-04T03:31:58.668Z,23.30
2022-11-04T03:37:01.201Z,25.17
2022-11-04T03:42:20.057Z,26.30
2022-11-04T03:47:25.596Z,28.67
2022-11-04T03:52:28.074Z,31.73
2022-11-04T03:57:42.793Z,31.52
2022-11-04T04:02:51.467Z,33.92
2022-11-04T04:07:56.885Z,36.75
2022-11-04T04:13:01.914Z,34.80
2022-11-04T04:18:08.298Z,36.33
2022-11-04T04:23:26.628Z,38.17
2022-11-04T04:28:29.100Z,37.55
2022-11-04T04:33:32.896Z,41.03
2022-11-04T04:38:53.973Z,43.22
2022-11-04T04:44:28.584Z,46.22
2022-11-04T04:49:35.347Z,45.72
2022-11-04T04:54:37.972Z,46.47
2022-11-04T04:59:40.341Z,49.67
2022-11-04T05:04:44.109Z,48.85
2022-11-04T05:09:46.666Z,49.95
2022-11-04T05:14:49.050Z,51.08
2022-11-04T05:19:52.812Z,50.15
2022-11-04T05:24:55.434Z,51.10
2022-11-04T05:29:57.867Z,56.67
2022-11-04T05:35:01.781Z,54.70
2022-11-04T05:40:04.605Z,58.47
2022-11-04T05:45:07.662Z,67.17
2022-11-04T05:50:11.519Z,57.42
2022-11-04T05:55:13.964Z,65.18
2022-11-04T06:00:17.604Z,65.82
2022-11-04T06:05:21.393Z,61.10
2022-11-04T06:10:24.453Z,58.92
2022-11-04T06:15:26.841Z,61.00
2022-11-04T06:20:30.669Z,58.10
2022-11-04T06:25:33.170Z,59.13
2022-11-04T06:30:35.823Z,55.53
2022-11-04T06:35:39.587Z,49.00
2022-11-04T06:40:42.048Z,42.65
2022-11-04T06:45:44.472Z,37.45
2022-11-04T06:50:48.278Z,35.40
2022-11-04T06:55:50.718Z,32.75
2022-11-04T07:00:53.833Z,33.25
2022-11-04T07:05:58.760Z,29.58
2022-11-04T07:11:01.169Z,27.55
2022-11-04T07:16:05.230Z,27.33
2022-11-04T07:21:10.296Z,28.33
2022-11-04T07:26:13.389Z,28.73
2022-11-04T07:31:16.981Z,25.67
2022-11-04T07:41:23.569Z,23.65
2022-11-04T07:46:26.097Z,19.80
2022-11-04T07:51:28.630Z,18.73
2022-11-04T07:56:32.394Z,19.02
2022-11-04T08:01:36.073Z,17.80
2022-11-04T08:06:39.047Z,16.42
2022-11-04T08:11:42.873Z,14.52
2022-11-04T08:16:45.305Z,13.10
2022-11-04T08:21:47.861Z,9.82
2022-11-04T08:26:52.387Z,8.37
2022-11-04T08:31:55.061Z,9.45
2022-11-04T08:36:59.825Z,9.20
2022-11-04T08:42:03.591Z,7.80
2022-11-04T08:47:06.127Z,8.27
2022-11-04T08:52:10.067Z,8.87
2022-11-04T08:57:13.940Z,9.27
2022-11-04T09:02:17.191Z,9.32
2022-11-04T09:07:19.755Z,10.60
2022-11-04T09:12:23.719Z,9.50
2022-11-04T09:17:26.198Z,10.18
2022-11-04T09:22:28.898Z,10.90
2022-11-04T09:27:32.739Z,10.70
2022-11-04T09:32:35.208Z,9.88
2022-11-04T09:37:37.905Z,9.47
2022-11-04T09:42:48.903Z,11.02
2022-11-04T09:47:53.233Z,11.40
2022-11-04T09:52:58.035Z,12.10
2022-11-04T09:58:01.942Z,12.13
2022-11-04T10:03:13.722Z,11.48
2022-11-04T10:08:24.687Z,13.20
2022-11-04T10:13:33.572Z,14.48
2022-11-04T10:18:43.396Z,11.75
2022-11-04T10:23:46.904Z,12.15
2022-11-04T10:28:53.516Z,11.73
2022-11-04T10:33:57.390Z,10.95
2022-11-04T10:39:02.844Z,11.23
2022-11-04T10:44:08.692Z,8.63
2022-11-04T10:49:25.503Z,7.85
2022-11-04T10:54:28.685Z,8.27
2022-11-04T10:59:35.870Z,7.80
2022-11-04T11:04:40.231Z,8.65
2022-11-04T11:09:53.505Z,8.18
2022-11-04T11:20:02.727Z,7.57
2022-11-04T11:25:15.647Z,7.22
2022-11-04T11:30:22.133Z,8.50
2022-11-04T11:35:27.880Z,7.93
2022-11-04T11:40:32.083Z,7.40
2022-11-04T11:45:34.889Z,7.90
2022-11-04T11:50:38.790Z,7.82
2022-11-04T11:55:43.725Z,8.05
2022-11-04T12:00:49.181Z,8.65
2022-11-04T12:11:17.784Z,9.00
2022-11-04T12:16:26.069Z,9.05
2022-11-04T12:21:33.698Z,9.27
2022-11-04T12:26:39.646Z,9.23
2022-11-04T12:31:47.290Z,9.70
2022-11-04T12:37:06.316Z,10.10
2022-11-04T12:42:21.839Z,8.45
2022-11-04T12:47:31.156Z,9.57
2022-11-04T12:52:43.858Z,9.75
2022-11-04T12:57:49.898Z,9.50
2022-11-04T13:02:57.620Z,10.05
2022-11-04T13:08:06.691Z,13.13
2022-11-04T13:13:13.121Z,11.13
2022-11-04T13:23:21.761Z,12.27
2022-11-04T13:28:24.402Z,13.30
2022-11-04T13:33:31.205Z,13.40
2022-11-04T13:38:37.357Z,12.65
2022-11-04T13:43:40.256Z,12.05
2022-11-04T13:48:51.407Z,12.30
2022-11-04T13:53:56.884Z,12.32
2022-11-04T13:59:01.307Z,12.00
2022-11-04T14:04:18.915Z,17.48
2022-11-04T14:09:33.866Z,14.35
2022-11-04T14:14:36.971Z,13.35
2022-11-04T14:19:49.799Z,14.55
2022-11-04T14:24:58.416Z,16.08
2022-11-04T14:30:01.363Z,13.02
2022-11-04T14:35:05.311Z,19.33
2022-11-04T14:40:24.188Z,17.95
2022-11-04T14:45:28.051Z,15.82
2022-11-04T14:50:30.446Z,15.23
2022-11-04T14:55:34.227Z,17.17
2022-11-04T15:00:38.222Z,16.42
2022-11-04T15:05:42.191Z,18.40
2022-11-04T15:10:50.078Z,15.98
2022-11-04T15:15:54.037Z,18.95
2022-11-04T15:20:57.950Z,22.73
2022-11-04T15:26:02.805Z,23.55
2022-11-04T15:31:07.386Z,21.02
2022-11-04T15:36:13.860Z,21.77
2022-11-04T15:41:38.541Z,18.40
2022-11-04T15:46:41.249Z,17.27
2022-11-04T15:51:43.845Z,17.48
2022-11-04T15:56:50.705Z,18.13
2022-11-04T16:01:53.903Z,17.50
2022-11-04T16:07:07.651Z,19.88
2022-11-04T16:12:16.234Z,21.42
2022-11-04T16:17:19.027Z,18.80
2022-11-04T16:22:24.920Z,26.92
2022-11-04T16:27:30.140Z,26.08
2022-11-04T16:32:44.208Z,25.65
2022-11-04T16:37:47.130Z,24.48
2022-11-04T16:42:51.442Z,23.98
2022-11-04T16:47:54.698Z,22.10
2022-11-04T16:52:57.367Z,25.95
2022-11-04T16:58:02.696Z,23.47
2022-11-04T17:03:13.752Z,21.35
2022-11-04T17:08:16.424Z,22.40
2022-11-04T17:13:36.010Z,23.73
2022-11-04T17:18:39.097Z,25.95
2022-11-04T17:23:41.835Z,24.83
2022-11-04T17:28:45.829Z,17.63
2022-11-04T17:33:48.731Z,12.30
2022-11-04T17:38:51.182Z,11.68
2022-11-04T17:44:04.959Z,9.75
2022-11-04T17:49:09.086Z,9.25
2022-11-04T17:54:11.732Z,9.93
2022-11-04T17:59:16.351Z,9.60
2022-11-04T18:04:19.713Z,7.82
2022-11-04T18:09:22.658Z,7.05
2022-11-04T18:14:26.786Z,10.75
2022-11-04T18:19:29.461Z,18.08
2022-11-04T18:24:32.207Z,24.53
2022-11-04T18:29:36.102Z,13.30
2022-11-04T18:34:38.869Z,9.05
2022-11-04T18:39:43.580Z,7.47
2022-11-04T18:44:48.610Z,6.07
2022-11-04T18:49:51.029Z,6.75
2022-11-04T18:54:53.535Z,6.40
2022-11-04T18:59:58.389Z,8.40
2022-11-04T19:05:01.002Z,9.50
2022-11-04T19:10:03.506Z,9.43
2022-11-04T19:15:08.254Z,10.00
2022-11-04T19:20:12.567Z,8.77
2022-11-04T19:25:15.329Z,9.73
2022-11-04T19:30:19.359Z,9.55
2022-11-04T19:35:21.808Z,10.70
2022-11-04T19:40:24.580Z,12.85
2022-11-04T19:45:28.688Z,10.90
2022-11-04T19:50:31.166Z,11.35
2022-11-04T19:55:33.607Z,10.10
2022-11-04T20:00:37.396Z,12.15
2022-11-04T20:05:40.459Z,12.43
2022-11-04T20:10:44.206Z,12.65
2022-11-04T20:15:48.209Z,11.15
2022-11-04T20:20:50.698Z,12.50
2022-11-04T20:25:53.267Z,14.00
2022-11-04T20:30:57.109Z,18.48
2022-11-04T20:36:01.578Z,15.20
2022-11-04T20:41:05.068Z,16.35
2022-11-04T20:46:10.263Z,14.90
2022-11-04T20:51:13.737Z,16.65
2022-11-04T20:56:17.358Z,15.77
2022-11-04T21:06:25.136Z,13.70
2022-11-04T21:11:32.163Z,13.88
2022-11-04T21:16:35.552Z,16.35
2022-11-04T21:21:40.870Z,13.18
2022-11-04T21:26:43.748Z,17.85
2022-11-04T21:31:46.929Z,14.33
2022-11-04T21:36:53.251Z,19.88
2022-11-04T21:41:56.720Z,16.63
2022-11-04T21:46:59.139Z,17.40
2022-11-04T21:52:05.732Z,17.70
2022-11-04T21:57:08.231Z,22.67
2022-11-04T22:02:10.807Z,22.80
2022-11-04T22:07:14.921Z,25.67
2022-11-04T22:12:17.498Z,30.13
2022-11-04T22:17:19.951Z,27.50
2022-11-04T22:22:23.903Z,26.95
2022-11-04T22:27:26.357Z,23.90
2022-11-04T22:32:29.005Z,19.80
2022-11-04T22:37:33.151Z,16.40
2022-11-04T22:42:35.615Z,18.50
2022-11-04T22:47:38.496Z,20.00
2022-11-04T22:52:42.434Z,21.17
2022-11-04T22:57:45.141Z,26.75
2022-11-04T23:02:47.654Z,29.67
2022-11-04T23:07:51.510Z,25.35
2022-11-04T23:13:11.608Z,18.95
2022-11-04T23:18:32.046Z,25.48
2022-11-04T23:23:53.367Z,21.05
2022-11-04T23:29:13.178Z,22.83
2022-11-04T23:34:32.884Z,26.60
2022-11-04T23:39:36.699Z,29.60
2022-11-04T23:44:56.642Z,28.67
2022-11-04T23:50:16.410Z,28.90
2022-11-04T23:55:40.202Z,28.40
